createdAt,value
2022-08-19T00:01:41.856Z,4.73
2022-08-19T00:04:13.296Z,6.93
2022-08-19T00:06:43.873Z,4.67
2022-08-19T00:09:15.676Z,5.67
2022-08-19T00:11:44.683Z,7.60
2022-08-19T00:14:16.670Z,6.90
2022-08-19T00:16:47.539Z,6.77
2022-08-19T00:19:16.693Z,4.20
2022-08-19T00:21:45.221Z,6.80
2022-08-19T00:24:16.263Z,6.23
2022-08-19T00:26:46.616Z,6.80
2022-08-19T00:29:17.165Z,6.10
2022-08-19T00:31:48.159Z,7.17
2022-08-19T00:34:18.787Z,7.03
2022-08-19T00:36:47.518Z,6.07
2022-08-19T00:39:20.632Z,7.27
2022-08-19T00:41:50.576Z,6.17
2022-08-19T00:44:27.054Z,5.60
2022-08-19T00:46:58.402Z,7.60
2022-08-19T00:49:31.662Z,7.27
2022-08-19T00:52:06.327Z,5.70
2022-08-19T00:54:37.674Z,6.90
2022-08-19T00:57:09.844Z,7.93
2022-08-19T01:00:00.582Z,7.00
2022-08-19T01:02:29.281Z,7.30
2022-08-19T01:04:58.715Z,7.43
2022-08-19T01:07:27.272Z,7.80
2022-08-19T01:09:56.645Z,8.20
2022-08-19T01:12:25.031Z,8.37
2022-08-19T01:14:54.470Z,8.90
2022-08-19T01:17:24.797Z,9.00
2022-08-19T01:19:54.145Z,8.87
2022-08-19T01:22:33.861Z,7.47
2022-08-19T01:25:03.478Z,9.90
2022-08-19T01:27:43.056Z,6.47
2022-08-19T01:30:16.216Z,7.37
2022-08-19T01:32:44.530Z,8.07
2022-08-19T01:35:14.274Z,10.27
2022-08-19T01:37:50.505Z,8.40
2022-08-19T01:40:20.376Z,7.80
2022-08-19T01:42:49.248Z,6.23
2022-08-19T01:45:20.728Z,8.23
2022-08-19T01:48:01.125Z,7.80
2022-08-19T01:50:31.455Z,7.97
2022-08-19T01:53:06.227Z,8.70
2022-08-19T01:55:41.326Z,8.47
2022-08-19T01:58:15.139Z,9.80
2022-08-19T02:00:46.271Z,8.47
2022-08-19T02:03:15.155Z,6.67
2022-08-19T02:05:44.143Z,7.17
2022-08-19T02:08:14.244Z,9.97
2022-08-19T02:10:44.539Z,8.00
2022-08-19T02:13:13.385Z,7.80
2022-08-19T02:15:41.939Z,10.43
2022-08-19T02:18:10.010Z,7.23
2022-08-19T02:20:39.995Z,9.03
2022-08-19T02:23:13.990Z,8.93
2022-08-19T02:25:49.017Z,10.20
2022-08-19T02:28:19.014Z,7.10
2022-08-19T02:30:49.085Z,7.37
2022-08-19T02:33:17.861Z,7.30
2022-08-19T02:35:46.859Z,7.37
2022-08-19T02:38:29.677Z,7.87
2022-08-19T02:41:02.081Z,8.50
2022-08-19T02:43:33.626Z,8.17
2022-08-19T02:46:03.471Z,7.60
2022-08-19T02:48:32.526Z,9.27
2022-08-19T02:51:00.547Z,7.50
2022-08-19T02:53:29.806Z,8.90
2022-08-19T02:55:59.494Z,8.40
2022-08-19T02:58:28.387Z,8.03
2022-08-19T03:00:58.188Z,9.13
2022-08-19T03:03:26.427Z,7.03
2022-08-19T03:06:04.927Z,7.07
2022-08-19T03:08:32.937Z,7.27
2022-08-19T03:11:02.357Z,9.63
2022-08-19T03:13:30.585Z,9.00
2022-08-19T03:15:59.047Z,8.80
2022-08-19T03:18:30.110Z,9.63
2022-08-19T03:20:58.221Z,7.87
2022-08-19T03:23:26.287Z,7.20
2022-08-19T03:26:03.882Z,10.93
2022-08-19T03:28:47.748Z,6.00
2022-08-19T03:31:44.425Z,8.00
2022-08-19T03:34:12.317Z,8.30
2022-08-19T03:36:40.495Z,7.10
2022-08-19T03:39:09.504Z,7.93
2022-08-19T03:41:44.902Z,7.93
2022-08-19T03:44:18.014Z,7.53
2022-08-19T03:46:47.683Z,7.57
2022-08-19T03:49:16.194Z,9.13
2022-08-19T03:51:47.795Z,6.60
2022-08-19T03:54:18.087Z,8.87
2022-08-19T03:56:48.277Z,7.40
2022-08-19T03:59:23.379Z,6.83
2022-08-19T04:01:51.395Z,8.83
2022-08-19T04:04:20.105Z,6.87
2022-08-19T04:06:48.911Z,8.57
2022-08-19T04:09:19.761Z,7.53
2022-08-19T04:11:50.274Z,8.57
2022-08-19T04:14:22.977Z,6.23
2022-08-19T04:16:51.858Z,8.63
2022-08-19T04:19:21.079Z,7.50
2022-08-19T04:21:52.011Z,11.03
2022-08-19T04:24:23.613Z,8.40
2022-08-19T04:26:51.969Z,6.23
2022-08-19T04:29:27.984Z,5.83
2022-08-19T04:31:57.697Z,5.03
2022-08-19T04:34:28.155Z,6.20
2022-08-19T04:36:58.593Z,5.60
2022-08-19T04:39:50.462Z,5.67
2022-08-19T04:42:37.575Z,8.33
2022-08-19T04:45:09.358Z,8.60
2022-08-19T04:47:47.576Z,11.97
2022-08-19T04:50:26.237Z,8.90
2022-08-19T04:52:54.678Z,9.40
2022-08-19T04:55:27.459Z,7.80
2022-08-19T04:57:55.590Z,9.77
2022-08-19T05:00:25.077Z,9.50
2022-08-19T05:02:53.249Z,9.03
2022-08-19T05:05:21.885Z,10.17
2022-08-19T05:07:49.942Z,9.27
2022-08-19T05:10:18.081Z,6.33
2022-08-19T05:12:46.150Z,7.70
2022-08-19T05:15:16.761Z,8.00
2022-08-19T05:18:06.141Z,6.33
2022-08-19T05:20:51.605Z,6.70
2022-08-19T05:23:22.792Z,8.20
2022-08-19T05:25:52.625Z,6.80
2022-08-19T05:28:21.078Z,6.30
2022-08-19T05:30:51.778Z,4.93
2022-08-19T05:33:23.445Z,5.03
2022-08-19T05:35:51.888Z,8.20
2022-08-19T05:38:20.272Z,10.13
2022-08-19T05:40:49.229Z,10.07
2022-08-19T05:43:17.531Z,6.43
2022-08-19T05:45:46.289Z,4.50
2022-08-19T05:48:15.966Z,7.93
2022-08-19T05:50:46.361Z,8.47
2022-08-19T05:53:17.453Z,7.87
2022-08-19T05:55:45.710Z,9.00
2022-08-19T05:58:13.965Z,7.73
2022-08-19T06:00:44.416Z,7.13
2022-08-19T06:03:13.472Z,8.70
2022-08-19T06:05:49.609Z,8.70
2022-08-19T06:08:34.289Z,8.23
2022-08-19T06:11:18.589Z,7.10
2022-08-19T06:13:51.611Z,7.37
2022-08-19T06:16:23.173Z,8.73
2022-08-19T06:18:53.595Z,7.73
2022-08-19T06:21:22.762Z,8.17
2022-08-19T06:23:53.451Z,9.73
2022-08-19T06:26:22.441Z,8.27
2022-08-19T06:28:51.395Z,7.37
2022-08-19T06:31:21.919Z,10.40
2022-08-19T06:33:50.815Z,7.03
2022-08-19T06:36:21.378Z,8.67
2022-08-19T06:38:54.777Z,8.20
2022-08-19T06:41:22.875Z,7.67
2022-08-19T06:43:54.056Z,9.90
2022-08-19T06:46:23.976Z,9.77
2022-08-19T06:48:54.362Z,7.70
2022-08-19T06:51:25.739Z,8.47
2022-08-19T06:53:59.647Z,7.47
2022-08-19T06:56:32.104Z,8.07
2022-08-19T06:59:00.525Z,8.57
2022-08-19T07:01:28.886Z,11.40
2022-08-19T07:03:57.579Z,8.40
2022-08-19T07:06:43.263Z,8.70
2022-08-19T07:09:18.325Z,7.80
2022-08-19T07:11:48.331Z,7.70
2022-08-19T07:14:20.085Z,7.83
2022-08-19T07:16:50.633Z,8.17
2022-08-19T07:19:20.602Z,9.33
2022-08-19T07:21:50.992Z,7.23
2022-08-19T07:24:20.664Z,8.80
2022-08-19T07:26:51.751Z,8.27
2022-08-19T07:29:25.865Z,7.50
2022-08-19T07:31:59.931Z,8.50
2022-08-19T07:34:29.520Z,10.77
2022-08-19T07:36:58.768Z,9.07
2022-08-19T07:39:30.499Z,9.63
2022-08-19T07:42:00.295Z,7.53
2022-08-19T07:44:28.470Z,7.80
2022-08-19T07:46:59.276Z,9.40
2022-08-19T07:49:27.387Z,9.10
2022-08-19T07:51:57.240Z,9.47
2022-08-19T07:54:30.316Z,8.80
2022-08-19T07:56:59.126Z,8.70
2022-08-19T07:59:27.646Z,5.83
2022-08-19T08:02:01.359Z,5.50
2022-08-19T08:04:47.478Z,8.43
2022-08-19T08:07:33.521Z,6.00
2022-08-19T08:10:08.569Z,9.70
2022-08-19T08:12:49.177Z,8.40
2022-08-19T08:15:43.152Z,6.60
2022-08-19T08:18:12.411Z,7.07
2022-08-19T08:20:40.881Z,7.47
2022-08-19T08:23:27.412Z,8.90
2022-08-19T08:25:58.850Z,7.97
2022-08-19T08:28:29.793Z,6.80
2022-08-19T08:31:01.411Z,8.57
2022-08-19T08:33:34.653Z,8.30
2022-08-19T08:36:04.305Z,8.67
2022-08-19T08:38:38.983Z,9.83
2022-08-19T08:41:20.459Z,10.57
2022-08-19T08:43:52.113Z,9.20
2022-08-19T08:46:30.983Z,8.43
2022-08-19T08:49:06.783Z,10.23
2022-08-19T08:54:16.060Z,6.57
2022-08-19T08:56:47.841Z,8.60
2022-08-19T08:59:25.417Z,8.00
2022-08-19T09:01:53.621Z,6.70
2022-08-19T09:04:21.807Z,6.70
2022-08-19T09:06:56.901Z,10.23
2022-08-19T09:09:33.288Z,7.53
2022-08-19T09:12:13.147Z,8.50
2022-08-19T09:14:51.575Z,9.90
2022-08-19T09:17:29.212Z,9.40
2022-08-19T09:20:01.930Z,6.63
2022-08-19T09:22:30.012Z,10.73
2022-08-19T09:24:58.540Z,8.47
2022-08-19T09:27:42.505Z,6.00
2022-08-19T09:30:16.209Z,10.37
2022-08-19T09:32:45.021Z,6.77
2022-08-19T09:35:14.994Z,11.73
2022-08-19T09:37:44.447Z,8.80
2022-08-19T09:40:14.330Z,10.17
2022-08-19T09:42:50.371Z,11.40
2022-08-19T09:45:22.965Z,6.40
2022-08-19T09:47:53.865Z,9.00
2022-08-19T09:50:24.529Z,10.77
2022-08-19T09:52:57.825Z,9.30
2022-08-19T09:55:31.171Z,8.13
2022-08-19T09:58:03.060Z,9.10
2022-08-19T10:00:32.616Z,10.33
2022-08-19T10:03:01.046Z,11.00
2022-08-19T10:05:48.477Z,10.03
2022-08-19T10:08:18.634Z,6.13
2022-08-19T10:10:49.223Z,6.60
2022-08-19T10:13:22.971Z,6.30
2022-08-19T10:15:52.115Z,6.77
2022-08-19T10:18:22.379Z,10.33
2022-08-19T10:20:52.812Z,6.43
2022-08-19T10:23:22.641Z,8.20
2022-08-19T10:25:54.263Z,5.77
2022-08-19T10:28:24.057Z,5.77
2022-08-19T10:30:52.199Z,11.60
2022-08-19T10:33:38.814Z,7.07
2022-08-19T10:36:11.846Z,10.37
2022-08-19T10:38:40.095Z,9.70
2022-08-19T10:41:24.097Z,8.50
2022-08-19T10:44:04.327Z,9.27
2022-08-19T10:46:33.668Z,8.47
2022-08-19T10:49:02.659Z,9.17
2022-08-19T10:51:48.799Z,9.03
2022-08-19T10:54:31.402Z,8.50
2022-08-19T10:57:00.373Z,7.93
2022-08-19T10:59:35.725Z,9.30
2022-08-19T11:02:07.728Z,8.10
2022-08-19T11:04:35.950Z,6.60
2022-08-19T11:07:43.235Z,9.37
2022-08-19T11:36:31.532Z,6.70
2022-08-19T11:42:38.103Z,7.50
2022-08-19T11:48:09.425Z,10.33
2022-08-19T13:23:44.752Z,7.97
2022-08-19T13:35:17.697Z,6.83
2022-08-19T13:38:37.431Z,6.10
2022-08-19T13:46:07.910Z,6.47
2022-08-19T14:06:17.846Z,7.43
2022-08-19T14:52:34.591Z,5.60
2022-08-19T14:55:03.335Z,7.40
2022-08-19T14:57:36.152Z,6.10
2022-08-19T15:00:05.166Z,7.63
2022-08-19T15:02:34.806Z,6.60
2022-08-19T15:05:03.503Z,5.80
2022-08-19T15:07:33.206Z,5.63
2022-08-19T15:10:01.567Z,6.93
2022-08-19T15:12:29.739Z,5.90
2022-08-19T15:14:57.968Z,5.27
2022-08-19T15:17:43.380Z,5.03
2022-08-19T15:20:19.318Z,7.43
2022-08-19T15:22:48.850Z,5.67
2022-08-19T15:25:19.568Z,5.07
2022-08-19T15:27:48.317Z,5.80
2022-08-19T15:30:22.985Z,6.93
2022-08-19T15:32:53.502Z,5.70
2022-08-19T15:35:22.912Z,7.27
2022-08-19T15:37:53.546Z,6.20
2022-08-19T15:40:22.997Z,5.57
2022-08-19T15:42:51.252Z,4.33
2022-08-19T15:45:21.463Z,5.33
2022-08-19T15:47:50.082Z,6.30
2022-08-19T15:50:21.331Z,4.53
2022-08-19T15:52:51.664Z,5.30
2022-08-19T15:55:33.581Z,6.40
2022-08-19T15:58:28.987Z,6.00
2022-08-19T16:01:15.962Z,6.03
2022-08-19T16:03:58.276Z,5.80
2022-08-19T16:06:29.484Z,4.63
2022-08-19T16:09:02.028Z,6.67
2022-08-19T16:11:39.330Z,5.73
2022-08-19T16:14:09.627Z,6.53
2022-08-19T16:16:39.598Z,6.00
2022-08-19T16:19:10.151Z,6.33
2022-08-19T16:21:41.704Z,6.77
2022-08-19T16:24:13.047Z,6.10
2022-08-19T16:26:43.749Z,6.30
2022-08-19T16:29:13.280Z,7.10
2022-08-19T16:31:43.580Z,5.03
2022-08-19T16:34:12.441Z,6.60
2022-08-19T16:36:42.046Z,5.23
2022-08-19T16:39:11.112Z,6.67
2022-08-19T16:41:39.850Z,6.80
2022-08-19T16:44:11.600Z,4.90
2022-08-19T16:46:41.698Z,5.07
2022-08-19T16:49:11.604Z,6.60
2022-08-19T16:51:39.974Z,4.30
2022-08-19T16:54:10.027Z,5.87
2022-08-19T16:56:38.192Z,4.57
2022-08-19T16:59:06.641Z,3.57
2022-08-19T17:01:36.197Z,4.97
2022-08-19T17:04:04.943Z,6.13
2022-08-19T17:06:33.710Z,5.97
2022-08-19T17:09:03.124Z,6.53
2022-08-19T17:11:32.935Z,6.50
2022-08-19T17:14:02.058Z,5.13
2022-08-19T17:16:32.389Z,5.03
2022-08-19T17:19:03.705Z,6.60
2022-08-19T17:21:34.253Z,5.20
2022-08-19T17:24:04.749Z,4.03
2022-08-19T17:26:36.772Z,5.80
2022-08-19T17:29:06.077Z,4.70
2022-08-19T17:31:34.757Z,6.33
2022-08-19T17:34:04.426Z,4.40
2022-08-19T17:36:34.058Z,6.30
2022-08-19T17:39:04.157Z,4.73
2022-08-19T17:41:34.178Z,4.70
2022-08-19T17:44:03.284Z,6.80
2022-08-19T17:46:31.443Z,4.37
2022-08-19T17:49:00.194Z,5.70
2022-08-19T17:51:43.060Z,3.93
2022-08-19T17:54:13.022Z,5.40
2022-08-19T17:56:41.862Z,4.77
2022-08-19T17:59:13.863Z,4.60
2022-08-19T18:01:53.723Z,4.10
2022-08-19T18:04:24.991Z,4.20
2022-08-19T18:06:55.945Z,4.43
2022-08-19T18:09:25.864Z,5.53
2022-08-19T18:11:56.850Z,5.27
2022-08-19T18:14:33.850Z,3.93
2022-08-19T18:17:09.193Z,6.13
2022-08-19T18:19:41.487Z,6.10
2022-08-19T18:22:14.114Z,5.00
2022-08-19T18:24:45.793Z,3.70
2022-08-19T18:27:14.533Z,3.20
2022-08-19T18:29:43.835Z,6.73
2022-08-19T18:32:13.735Z,4.93
2022-08-19T18:34:43.630Z,4.60
2022-08-19T18:37:13.670Z,5.33
2022-08-19T18:39:59.084Z,4.40
2022-08-19T18:42:44.639Z,4.90
2022-08-19T18:45:30.667Z,4.43
2022-08-19T18:48:26.340Z,4.90
2022-08-19T18:50:57.564Z,5.13
2022-08-19T18:53:29.148Z,4.50
2022-08-19T18:55:57.608Z,5.33
2022-08-19T18:58:28.371Z,5.30
2022-08-19T19:00:57.771Z,5.23
2022-08-19T19:03:26.811Z,6.03
2022-08-19T19:05:55.040Z,5.97
2022-08-19T19:08:27.110Z,6.10
2022-08-19T19:11:05.090Z,7.03
2022-08-19T19:13:35.236Z,4.20
2022-08-19T19:16:04.051Z,4.93
2022-08-19T19:18:33.390Z,5.13
2022-08-19T19:21:01.548Z,5.13
2022-08-19T19:23:29.627Z,5.03
2022-08-19T19:26:01.754Z,6.57
2022-08-19T19:28:29.834Z,5.73
2022-08-19T19:30:59.068Z,4.60
2022-08-19T19:33:27.969Z,6.00
2022-08-19T19:35:56.455Z,4.00
2022-08-19T19:38:26.861Z,4.27
2022-08-19T19:40:54.944Z,4.83
2022-08-19T19:43:24.524Z,5.30
2022-08-19T19:45:52.572Z,4.43
2022-08-19T19:48:20.736Z,5.40
2022-08-19T19:50:54.449Z,5.43
2022-08-19T19:53:26.815Z,4.43
2022-08-19T19:55:58.661Z,4.97
2022-08-19T19:58:29.509Z,5.97
2022-08-19T20:00:58.903Z,6.00
2022-08-19T20:03:27.213Z,4.30
2022-08-19T20:05:58.173Z,3.73
2022-08-19T20:08:47.358Z,4.83
2022-08-19T20:11:31.130Z,5.67
2022-08-19T20:14:06.604Z,5.03
2022-08-19T20:16:34.847Z,5.00
2022-08-19T20:19:03.582Z,4.80
2022-08-19T20:21:34.914Z,7.90
2022-08-19T20:24:09.615Z,6.20
2022-08-19T20:26:38.780Z,6.90
2022-08-19T20:29:37.909Z,5.00
2022-08-19T20:31:59.624Z,3.30
2022-08-19T20:34:28.788Z,5.50
2022-08-19T20:36:57.180Z,6.30
2022-08-19T20:39:25.286Z,5.00
2022-08-19T20:41:56.442Z,5.07
2022-08-19T20:44:26.290Z,5.57
2022-08-19T20:46:57.563Z,7.10
2022-08-19T20:49:27.834Z,6.50
2022-08-19T20:51:56.555Z,5.70
2022-08-19T20:54:24.834Z,4.80
2022-08-19T20:56:53.234Z,6.10
2022-08-19T20:59:21.323Z,5.70
2022-08-19T21:01:52.248Z,6.03
2022-08-19T21:04:21.294Z,4.60
2022-08-19T21:06:49.547Z,6.10
2022-08-19T21:09:18.505Z,4.60
2022-08-19T21:11:46.695Z,5.10
2022-08-19T21:14:15.056Z,5.00
2022-08-19T21:16:43.153Z,6.53
2022-08-19T21:19:12.933Z,5.70
2022-08-19T21:21:41.008Z,5.77
2022-08-19T21:24:09.580Z,5.60
2022-08-19T21:26:37.706Z,4.50
2022-08-19T21:29:05.811Z,3.73
2022-08-19T21:31:34.046Z,5.00
2022-08-19T21:34:02.113Z,5.30
2022-08-19T21:36:31.533Z,3.80
2022-08-19T21:38:59.666Z,6.00
2022-08-19T21:41:27.874Z,5.40
2022-08-19T21:43:55.910Z,4.03
2022-08-19T21:46:23.976Z,7.00
2022-08-19T21:48:52.036Z,6.53
2022-08-19T21:51:20.106Z,5.33
2022-08-19T21:53:52.888Z,6.10
2022-08-19T21:56:21.322Z,5.20
2022-08-19T21:58:49.429Z,5.27
2022-08-19T22:01:17.626Z,5.53
2022-08-19T22:03:45.730Z,6.93
2022-08-19T22:06:13.775Z,4.70
2022-08-19T22:08:44.752Z,7.90
2022-08-19T22:11:14.432Z,7.20
2022-08-19T22:13:42.496Z,6.20
2022-08-19T22:16:11.297Z,5.17
2022-08-19T22:18:42.092Z,4.60
2022-08-19T22:21:12.209Z,4.77
2022-08-19T22:23:44.389Z,4.30
2022-08-19T22:26:17.560Z,3.80
2022-08-19T22:28:46.116Z,4.83
2022-08-19T22:31:15.717Z,5.70
2022-08-19T22:33:46.202Z,4.30
2022-08-19T22:36:15.241Z,5.83
2022-08-19T22:38:43.783Z,6.17
2022-08-19T22:41:12.660Z,6.17
2022-08-19T22:43:42.514Z,6.20
2022-08-19T22:46:16.979Z,6.83
2022-08-19T22:48:46.701Z,8.40
2022-08-19T22:51:32.757Z,4.97
2022-08-19T22:54:01.187Z,5.20
2022-08-19T22:56:30.759Z,4.10
2022-08-19T22:59:00.153Z,6.37
2022-08-19T23:01:29.966Z,5.30
2022-08-19T23:03:59.532Z,6.33
2022-08-19T23:06:33.203Z,6.27
2022-08-19T23:09:02.388Z,3.70
2022-08-19T23:11:35.751Z,4.50
2022-08-19T23:14:12.488Z,6.00
2022-08-19T23:16:41.723Z,5.63
2022-08-19T23:19:10.087Z,4.53
2022-08-19T23:21:38.382Z,3.70
2022-08-19T23:24:09.636Z,3.20
2022-08-19T23:26:38.104Z,3.90
2022-08-19T23:29:24.492Z,3.10
2022-08-19T23:31:53.883Z,3.37
2022-08-19T23:34:22.113Z,3.17
2022-08-19T23:36:50.856Z,5.17
2022-08-19T23:39:19.365Z,4.97
2022-08-19T23:41:47.546Z,4.80
2022-08-19T23:44:15.759Z,4.23
2022-08-19T23:46:55.127Z,3.80
2022-08-19T23:49:26.427Z,3.87
2022-08-19T23:51:56.423Z,4.10
2022-08-19T23:54:34.333Z,4.03
2022-08-19T23:57:14.225Z,3.80
2022-08-19T23:59:46.257Z,6.40
